Time;durP1;ratioP1;P1;durP2;ratioP2;P2;SDS_P1;SDS_P2;PMS_P1;PMS_P2;Temp;Humidity;BMP_temperature;BMP_pressure;BME280_temperature;BME280_humidity;BME280_pressure;Samples;Min_cycle;Max_cycle;Signal;HPM_P1;HPM_P2
2022/11/27 00:01:24;;;;;;;19.17;16.17;;;2.80;99.90;;;;;;4987411;28;20046;-66
2022/11/27 00:03:53;;;;;;;19.55;16.60;;;2.80;99.90;;;;;;4991430;28;20050;-66
2022/11/27 00:06:23;;;;;;;24.85;16.45;;;2.80;99.90;;;;;;4979963;28;20136;-65
2022/11/27 00:08:49;;;;;;;20.23;15.27;;;2.80;99.90;;;;;;4983219;28;20134;-65
2022/11/27 00:11:22;;;;;;;15.65;13.57;;;2.80;99.90;;;;;;4978931;28;20046;-66
2022/11/27 00:13:50;;;;;;;19.13;13.88;;;2.80;99.90;;;;;;4985438;28;20149;-65
2022/11/27 00:16:18;;;;;;;15.43;12.95;;;2.80;99.90;;;;;;4983372;28;20042;-66
2022/11/27 00:18:46;;;;;;;16.58;13.38;;;2.80;99.90;;;;;;4986276;28;20381;-65
2022/11/27 00:21:15;;;;;;;14.35;12.82;;;2.90;99.90;;;;;;4984642;28;20072;-66
2022/11/27 00:23:42;;;;;;;18.40;15.18;;;2.90;99.90;;;;;;4985971;28;20050;-66
2022/11/27 00:26:10;;;;;;;16.08;13.38;;;2.90;99.90;;;;;;4987314;28;20127;-66
2022/11/27 00:28:37;;;;;;;16.92;13.63;;;2.90;99.90;;;;;;4981702;28;20046;-65
2022/11/27 00:31:20;;;;;;;17.48;13.02;;;2.90;99.90;;;;;;4988221;28;20140;-65
2022/11/27 00:33:48;;;;;;;15.60;11.90;;;2.90;99.90;;;;;;4987259;28;20058;-66
2022/11/27 00:36:15;;;;;;;13.90;10.90;;;2.90;99.90;;;;;;4985104;28;20058;-66
2022/11/27 00:38:42;;;;;;;14.15;11.98;;;2.90;99.90;;;;;;4983344;28;20145;-65
2022/11/27 00:41:16;;;;;;;12.98;10.93;;;2.90;99.90;;;;;;4983739;28;20050;-65
2022/11/27 00:43:43;;;;;;;15.27;12.50;;;2.90;99.90;;;;;;4983958;28;20050;-65
2022/11/27 00:46:13;;;;;;;16.13;11.63;;;2.90;99.90;;;;;;4986179;28;20046;-65
2022/11/27 00:48:40;;;;;;;16.48;11.80;;;2.90;99.90;;;;;;4979386;28;20414;-67
2022/11/27 00:51:12;;;;;;;14.85;12.80;;;2.90;99.90;;;;;;4985614;28;20064;-65
2022/11/27 00:53:46;;;;;;;15.32;11.57;;;2.90;99.90;;;;;;4994797;28;20038;-66
2022/11/27 00:56:19;;;;;;;12.50;11.27;;;3.00;99.90;;;;;;4997165;28;20146;-65
2022/11/27 00:58:46;;;;;;;13.20;10.57;;;3.00;99.90;;;;;;4980845;28;20113;-65
2022/11/27 01:01:22;;;;;;;13.40;11.20;;;3.00;99.90;;;;;;4982885;28;20050;-65
2022/11/27 01:03:50;;;;;;;17.35;12.80;;;3.00;99.90;;;;;;4997557;28;20073;-65
2022/11/27 01:06:18;;;;;;;13.73;11.35;;;3.00;99.90;;;;;;4979111;28;20054;-67
2022/11/27 01:08:46;;;;;;;15.23;11.90;;;3.00;99.90;;;;;;4979110;28;20134;-67
2022/11/27 01:11:27;;;;;;;14.65;11.43;;;3.00;99.90;;;;;;4988792;28;20356;-65
2022/11/27 01:13:55;;;;;;;13.57;11.90;;;3.00;99.90;;;;;;4980326;28;20365;-66
2022/11/27 01:16:25;;;;;;;15.32;11.25;;;3.00;99.90;;;;;;4985796;28;20536;-66
2022/11/27 01:18:56;;;;;;;15.02;11.55;;;3.00;99.90;;;;;;4990082;28;20104;-65
2022/11/27 01:21:25;;;;;;;17.95;12.50;;;3.00;99.90;;;;;;4986090;28;20054;-66
2022/11/27 01:23:53;;;;;;;16.27;13.90;;;3.00;99.90;;;;;;4990923;28;20070;-65
2022/11/27 01:26:21;;;;;;;16.33;11.82;;;3.00;99.90;;;;;;4986826;28;20132;-66
2022/11/27 01:28:51;;;;;;;13.02;11.60;;;3.00;99.90;;;;;;4983685;28;20038;-66
2022/11/27 01:31:21;;;;;;;14.23;11.25;;;3.00;99.90;;;;;;4983715;28;20104;-66
2022/11/27 01:33:52;;;;;;;12.50;10.57;;;3.00;99.90;;;;;;4987174;28;20060;-65
2022/11/27 01:36:20;;;;;;;12.38;10.65;;;3.00;99.90;;;;;;4987619;28;20742;-65
2022/11/27 01:38:47;;;;;;;14.57;11.43;;;3.00;99.90;;;;;;4987462;28;20121;-66
2022/11/27 01:41:20;;;;;;;17.00;12.32;;;3.00;99.90;;;;;;4989548;28;20078;-66
2022/11/27 01:43:50;;;;;;;15.25;11.57;;;3.00;99.90;;;;;;4990011;28;20058;-66
2022/11/27 01:46:41;;;;;;;12.63;10.50;;;3.00;99.90;;;;;;4981896;28;20124;-66
2022/11/27 01:49:08;;;;;;;17.35;11.15;;;3.00;99.90;;;;;;4987341;28;20054;-66
2022/11/27 01:51:51;;;;;;;16.05;11.98;;;3.00;99.90;;;;;;4984663;28;20447;-66
2022/11/27 01:54:20;;;;;;;15.57;11.10;;;3.10;99.90;;;;;;4983775;28;20154;-65
2022/11/27 01:56:50;;;;;;;14.00;11.02;;;3.00;99.90;;;;;;4991888;28;20084;-66
2022/11/27 01:59:18;;;;;;;15.25;11.95;;;3.00;99.90;;;;;;4988732;28;20072;-67
2022/11/27 02:01:45;;;;;;;15.82;12.60;;;3.00;99.90;;;;;;4984433;28;20046;-65
2022/11/27 02:04:12;;;;;;;15.10;11.50;;;3.10;99.90;;;;;;4990011;28;20415;-65
2022/11/27 02:06:39;;;;;;;13.48;11.45;;;3.10;99.90;;;;;;4984390;28;20126;-65
2022/11/27 02:09:06;;;;;;;12.50;10.43;;;3.10;99.90;;;;;;4988271;28;20060;-65
2022/11/27 02:11:42;;;;;;;17.55;11.38;;;3.10;99.90;;;;;;4988811;28;20089;-66
2022/11/27 02:14:27;;;;;;;25.52;14.40;;;3.10;99.90;;;;;;4988938;28;20050;-65
2022/11/27 02:17:14;;;;;;;21.00;14.98;;;3.00;99.90;;;;;;4981471;28;20058;-67
2022/11/27 02:20:10;;;;;;;18.40;12.93;;;3.00;99.90;;;;;;4988704;28;20369;-65
2022/11/27 02:22:46;;;;;;;20.05;12.52;;;3.00;99.90;;;;;;4982877;28;20153;-65
2022/11/27 02:26:07;;;;;;;18.38;11.18;;;3.00;99.90;;;;;;4989448;28;20165;-67
2022/11/27 02:28:57;;;;;;;17.30;12.45;;;2.90;99.90;;;;;;4933818;28;20712;-65
2022/11/27 02:31:39;;;;;;;13.35;10.10;;;2.90;99.90;;;;;;4979977;28;20132;-66
2022/11/27 02:34:27;;;;;;;12.35;9.38;;;2.90;99.90;;;;;;4985350;28;20054;-65
2022/11/27 02:37:07;;;;;;;12.30;10.13;;;2.90;99.90;;;;;;4982113;28;20062;-67
2022/11/27 02:40:02;;;;;;;12.77;9.48;;;2.90;99.90;;;;;;4986586;28;20173;-64
2022/11/27 02:42:37;;;;;;;12.23;9.75;;;2.90;99.90;;;;;;4969825;28;20459;-64
2022/11/27 02:45:15;;;;;;;8.93;7.32;;;2.80;99.90;;;;;;4988708;28;20763;-65
2022/11/27 02:47:45;;;;;;;15.07;10.52;;;2.90;99.90;;;;;;4986682;28;20050;-65
2022/11/27 02:50:18;;;;;;;;;;;2.80;99.90;;;;;;4985916;28;20154;-65
2022/11/27 02:52:48;;;;;;;11.52;9.43;;;2.80;99.90;;;;;;4985493;28;19922;-65
2022/11/27 02:55:19;;;;;;;10.30;8.57;;;2.70;99.90;;;;;;4987466;28;20529;-65
2022/11/27 02:57:49;;;;;;;12.43;8.52;;;2.70;99.90;;;;;;4984787;28;20220;-65
2022/11/27 03:00:16;;;;;;;9.82;7.35;;;2.70;99.90;;;;;;4982247;28;20448;-65
2022/11/27 03:02:49;;;;;;;10.38;8.02;;;2.70;99.90;;;;;;4987750;28;20050;-65
2022/11/27 03:05:20;;;;;;;10.88;8.52;;;2.70;99.90;;;;;;4982903;28;20067;-66
2022/11/27 03:07:51;;;;;;;13.30;9.93;;;2.70;99.90;;;;;;4982462;28;20147;-64
2022/11/27 03:10:30;;;;;;;13.68;10.27;;;2.70;99.90;;;;;;4984816;28;20054;-66
2022/11/27 03:12:58;;;;;;;10.48;9.00;;;2.70;99.90;;;;;;4986436;28;20601;-64
2022/11/27 03:15:38;;;;;;;10.77;8.57;;;2.70;99.90;;;;;;4986927;28;20395;-66
2022/11/27 03:18:21;;;;;;;11.55;8.70;;;2.70;99.90;;;;;;4988039;28;20381;-65
2022/11/27 03:20:55;;;;;;;13.38;9.32;;;2.80;99.90;;;;;;4976944;28;20130;-67
2022/11/27 03:23:22;;;;;;;10.48;8.75;;;2.80;99.90;;;;;;4982446;28;20530;-66
2022/11/27 03:25:49;;;;;;;10.38;8.82;;;2.80;99.90;;;;;;4987348;28;20164;-65
2022/11/27 03:28:16;;;;;;;13.15;9.18;;;2.80;99.90;;;;;;4985746;28;20082;-66
2022/11/27 03:30:43;;;;;;;12.98;10.20;;;2.80;99.90;;;;;;4987249;28;20069;-64
2022/11/27 03:33:10;;;;;;;14.65;10.05;;;2.90;99.90;;;;;;4989049;28;20054;-65
2022/11/27 03:35:37;;;;;;;13.65;9.77;;;2.90;99.90;;;;;;4996315;28;20232;-66
2022/11/27 03:38:04;;;;;;;5.75;4.68;;;3.00;99.90;;;;;;4986623;28;20567;-65
2022/11/27 03:40:55;;;;;;;8.15;5.35;;;3.10;99.90;;;;;;4980042;28;20039;-66
2022/11/27 03:43:26;;;;;;;4.32;3.00;;;3.20;99.90;;;;;;4982121;28;20419;-65
2022/11/27 03:46:22;;;;;;;3.03;2.17;;;3.30;99.90;;;;;;4985924;28;20162;-66
2022/11/27 03:49:01;;;;;;;1.98;1.80;;;3.50;99.90;;;;;;4977784;28;20090;-65
2022/11/27 03:51:43;;;;;;;2.63;1.00;;;3.50;99.90;;;;;;4984466;28;20045;-65
2022/11/27 03:54:19;;;;;;;2.45;1.27;;;3.60;99.90;;;;;;4983146;28;20070;-65
2022/11/27 03:57:20;;;;;;;1.65;1.00;;;3.60;99.90;;;;;;4982422;28;20093;-66
2022/11/27 03:59:51;;;;;;;1.73;1.30;;;3.70;99.90;;;;;;4983409;28;20042;-67
2022/11/27 04:02:37;;;;;;;2.03;1.10;;;3.70;99.90;;;;;;4981748;28;20042;-65
2022/11/27 04:05:04;;;;;;;1.48;1.10;;;3.80;99.90;;;;;;4988363;28;20064;-66
2022/11/27 04:07:31;;;;;;;1.27;0.90;;;3.80;99.90;;;;;;4986714;28;20054;-65
2022/11/27 04:09:58;;;;;;;5.78;1.23;;;3.90;99.90;;;;;;4982765;28;20522;-65
2022/11/27 04:12:25;;;;;;;1.10;0.90;;;4.00;99.90;;;;;;4976380;28;20051;-65
2022/11/27 04:14:52;;;;;;;1.63;1.15;;;4.00;99.90;;;;;;4987235;28;20042;-65
2022/11/27 04:17:19;;;;;;;1.10;1.00;;;4.10;99.90;;;;;;4988159;28;20067;-65
2022/11/27 04:19:46;;;;;;;1.98;1.35;;;4.00;99.90;;;;;;4978570;28;20053;-65
2022/11/27 04:22:12;;;;;;;1.38;0.88;;;4.10;99.90;;;;;;4988705;28;20153;-65
2022/11/27 04:24:39;;;;;;;0.73;0.60;;;4.10;99.90;;;;;;4981555;28;20042;-66
2022/11/27 04:27:06;;;;;;;1.50;1.35;;;4.10;99.90;;;;;;4986498;28;20116;-66
2022/11/27 04:29:35;;;;;;;1.33;1.23;;;4.10;99.90;;;;;;4987231;28;20108;-65
2022/11/27 04:32:03;;;;;;;5.45;2.85;;;4.10;99.90;;;;;;4984819;28;20417;-66
2022/11/27 04:34:31;;;;;;;3.60;1.52;;;4.20;99.90;;;;;;4986000;28;20445;-66
2022/11/27 04:36:58;;;;;;;1.58;1.30;;;4.10;99.90;;;;;;4983534;28;20054;-65
2022/11/27 04:39:25;;;;;;;1.75;1.30;;;4.20;99.90;;;;;;4980746;28;20048;-67
2022/11/27 04:41:52;;;;;;;2.55;1.58;;;4.20;99.90;;;;;;4979897;28;20142;-65
2022/11/27 04:44:21;;;;;;;2.45;1.70;;;4.20;99.90;;;;;;4985156;28;20536;-66
2022/11/27 04:46:48;;;;;;;2.15;1.60;;;4.30;99.90;;;;;;4986264;28;20166;-65
2022/11/27 04:49:16;;;;;;;1.48;1.23;;;4.30;99.90;;;;;;4986396;28;20149;-66
2022/11/27 04:51:43;;;;;;;1.73;1.45;;;4.30;99.90;;;;;;4994095;28;20062;-65
2022/11/27 04:54:10;;;;;;;1.52;1.15;;;4.30;99.90;;;;;;4982179;28;20133;-65
2022/11/27 04:56:36;;;;;;;2.13;1.20;;;4.30;99.90;;;;;;4983837;28;20061;-67
2022/11/27 04:59:04;;;;;;;2.58;1.33;;;4.30;99.90;;;;;;4988727;28;20078;-66
2022/11/27 05:01:31;;;;;;;1.05;0.80;;;4.40;99.90;;;;;;4986957;28;20136;-65
2022/11/27 05:03:58;;;;;;;1.10;1.00;;;4.40;99.90;;;;;;4989966;28;20513;-66
2022/11/27 05:06:25;;;;;;;1.55;1.00;;;4.40;99.90;;;;;;4985540;28;20133;-65
2022/11/27 05:08:58;;;;;;;3.92;1.23;;;4.40;99.90;;;;;;4990977;28;20368;-66
2022/11/27 05:11:25;;;;;;;1.65;1.23;;;4.40;99.90;;;;;;4989919;28;20193;-67
2022/11/27 05:14:13;;;;;;;0.90;0.90;;;4.40;99.90;;;;;;4984337;28;20510;-65
2022/11/27 05:16:40;;;;;;;1.30;1.20;;;4.40;99.90;;;;;;4982960;28;20050;-66
2022/11/27 05:19:09;;;;;;;2.10;1.27;;;4.40;99.90;;;;;;4984194;28;20073;-65
2022/11/27 05:21:37;;;;;;;1.15;1.05;;;4.40;99.90;;;;;;4987595;28;20091;-65
2022/11/27 05:24:04;;;;;;;1.48;0.80;;;4.40;99.90;;;;;;4988660;28;20154;-65
2022/11/27 05:26:32;;;;;;;0.70;0.70;;;4.40;99.90;;;;;;4989903;28;20050;-66
2022/11/27 05:28:59;;;;;;;1.48;1.38;;;4.40;99.90;;;;;;4984834;28;20519;-65
2022/11/27 05:31:26;;;;;;;1.70;1.30;;;4.40;99.90;;;;;;4990442;28;20715;-66
2022/11/27 05:33:53;;;;;;;1.88;1.33;;;4.40;99.90;;;;;;4985309;28;20130;-66
2022/11/27 05:36:20;;;;;;;1.52;1.42;;;4.40;99.90;;;;;;4987692;28;20050;-65
2022/11/27 05:38:47;;;;;;;1.45;1.35;;;4.40;99.90;;;;;;4985324;28;20061;-66
2022/11/27 05:41:14;;;;;;;2.38;1.30;;;4.40;99.90;;;;;;4989266;28;20073;-65
2022/11/27 05:43:41;;;;;;;1.80;1.27;;;4.50;99.90;;;;;;4984765;28;20141;-65
2022/11/27 05:46:11;;;;;;;1.15;1.00;;;4.50;99.90;;;;;;4987305;28;20068;-66
2022/11/27 05:48:38;;;;;;;2.35;1.13;;;4.50;99.90;;;;;;4988353;28;20591;-65
2022/11/27 05:51:05;;;;;;;2.78;0.90;;;4.50;99.90;;;;;;4989354;28;20146;-65
2022/11/27 05:53:32;;;;;;;1.30;1.20;;;4.50;99.90;;;;;;4989327;28;20061;-65
2022/11/27 05:56:11;;;;;;;3.90;0.82;;;4.50;99.90;;;;;;4988086;28;20508;-66
2022/11/27 05:58:39;;;;;;;1.35;0.80;;;4.40;99.90;;;;;;4983306;28;20068;-65
2022/11/27 06:01:07;;;;;;;1.58;1.25;;;4.40;99.90;;;;;;4987000;28;20129;-65
2022/11/27 06:03:37;;;;;;;1.10;0.90;;;4.40;99.90;;;;;;4987946;28;20134;-65
2022/11/27 06:06:06;;;;;;;1.38;1.27;;;4.50;99.90;;;;;;4988304;28;20085;-65
2022/11/27 06:08:35;;;;;;;2.13;1.80;;;4.50;99.90;;;;;;4985161;28;20061;-65
2022/11/27 06:11:11;;;;;;;1.52;1.08;;;4.50;99.90;;;;;;4986907;28;20051;-65
2022/11/27 06:13:38;;;;;;;1.52;1.13;;;4.50;99.90;;;;;;4988710;28;20233;-65
2022/11/27 06:16:14;;;;;;;1.67;1.25;;;4.40;99.90;;;;;;4990771;28;20068;-65
2022/11/27 06:18:41;;;;;;;1.63;1.30;;;4.40;99.90;;;;;;4997455;28;20066;-66
2022/11/27 06:21:13;;;;;;;1.30;1.20;;;4.40;99.90;;;;;;4983481;28;20080;-64
2022/11/27 06:23:41;;;;;;;1.50;1.40;;;4.40;99.90;;;;;;4988533;28;20070;-65
2022/11/27 06:26:21;;;;;;;3.53;1.50;;;4.40;99.90;;;;;;5000147;28;20050;-66
2022/11/27 06:28:48;;;;;;;2.30;1.27;;;4.40;99.90;;;;;;4985154;28;20066;-65
2022/11/27 06:31:18;;;;;;;3.17;1.90;;;4.40;99.90;;;;;;4983373;28;20081;-65
2022/11/27 06:33:47;;;;;;;1.80;1.67;;;4.40;99.90;;;;;;4981364;28;20076;-66
2022/11/27 06:36:16;;;;;;;3.35;1.73;;;4.40;99.90;;;;;;4987752;28;20064;-65
2022/11/27 06:38:43;;;;;;;4.38;1.52;;;4.40;99.90;;;;;;4983466;28;20584;-66
2022/11/27 06:41:13;;;;;;;2.58;2.38;;;4.30;99.90;;;;;;4988240;28;20458;-65
2022/11/27 06:43:40;;;;;;;1.50;1.30;;;4.30;99.90;;;;;;4990001;28;20547;-65
2022/11/27 06:46:12;;;;;;;1.85;1.50;;;4.30;99.90;;;;;;4983355;28;20292;-66
2022/11/27 06:48:39;;;;;;;2.50;1.95;;;4.30;99.90;;;;;;4986458;28;20101;-65
2022/11/27 06:51:08;;;;;;;1.58;1.48;;;4.30;99.90;;;;;;4986751;28;20356;-65
2022/11/27 06:53:36;;;;;;;1.48;1.38;;;4.30;99.90;;;;;;4987834;28;20069;-65
2022/11/27 06:56:14;;;;;;;3.45;1.65;;;4.30;99.90;;;;;;4990731;28;20058;-65
2022/11/27 06:58:42;;;;;;;2.85;1.58;;;4.20;99.90;;;;;;4983624;28;20054;-65
2022/11/27 07:01:15;;;;;;;1.98;1.70;;;4.20;99.90;;;;;;4983920;28;20038;-66
2022/11/27 07:03:43;;;;;;;1.70;1.60;;;4.30;99.90;;;;;;4990005;28;20057;-66
2022/11/27 07:06:14;;;;;;;2.30;2.10;;;4.20;99.90;;;;;;4980371;28;20141;-66
2022/11/27 07:08:41;;;;;;;2.22;1.80;;;4.30;99.90;;;;;;4982594;28;20074;-66
2022/11/27 07:11:11;;;;;;;4.07;3.30;;;4.20;99.90;;;;;;4984064;28;20141;-66
2022/11/27 07:13:38;;;;;;;2.00;1.80;;;4.20;99.90;;;;;;4985299;28;20046;-64
2022/11/27 07:16:08;;;;;;;3.25;2.08;;;4.20;99.90;;;;;;4984369;28;20112;-65
2022/11/27 07:18:43;;;;;;;2.42;2.20;;;4.20;99.90;;;;;;4979917;28;20574;-68
2022/11/27 07:21:11;;;;;;;2.92;1.83;;;4.20;99.90;;;;;;4978799;28;20472;-66
2022/11/27 07:23:38;;;;;;;2.25;2.05;;;4.20;99.90;;;;;;4999883;28;20504;-66
2022/11/27 07:26:07;;;;;;;2.03;1.70;;;4.20;99.90;;;;;;4980568;28;20382;-66
2022/11/27 07:28:34;;;;;;;2.90;2.47;;;4.10;99.90;;;;;;4979674;28;20057;-66
2022/11/27 07:31:02;;;;;;;3.17;2.60;;;4.20;99.90;;;;;;4977730;28;20500;-69
2022/11/27 07:33:29;;;;;;;2.47;2.28;;;4.20;99.90;;;;;;4982840;28;20145;-67
2022/11/27 07:36:01;;;;;;;4.13;3.00;;;4.10;99.90;;;;;;4984410;28;20126;-66
2022/11/27 07:38:28;;;;;;;3.13;2.80;;;4.20;99.90;;;;;;4980822;28;20081;-67
2022/11/27 07:40:59;;;;;;;3.10;2.47;;;4.10;99.90;;;;;;4984379;28;20072;-66
2022/11/27 07:43:27;;;;;;;5.93;2.95;;;4.10;99.90;;;;;;4982731;28;20171;-65
2022/11/27 07:45:54;;;;;;;3.58;2.35;;;4.10;99.90;;;;;;4986626;28;20109;-65
2022/11/27 07:48:22;;;;;;;2.80;2.60;;;4.10;99.90;;;;;;4983062;28;20042;-67
2022/11/27 07:50:48;;;;;;;3.72;2.50;;;4.10;99.90;;;;;;4986031;28;20457;-66
2022/11/27 07:53:16;;;;;;;5.70;3.85;;;4.10;99.90;;;;;;4984213;28;20125;-66
2022/11/27 07:55:42;;;;;;;4.00;3.60;;;4.10;99.90;;;;;;4984415;28;20052;-67
2022/11/27 07:58:09;;;;;;;3.85;3.15;;;4.10;99.90;;;;;;4982918;28;20050;-65
2022/11/27 08:00:37;;;;;;;3.47;3.17;;;4.10;99.90;;;;;;4980270;28;20050;-65
2022/11/27 08:03:04;;;;;;;5.05;4.55;;;4.10;99.90;;;;;;4983888;28;20065;-65
2022/11/27 08:05:34;;;;;;;3.63;3.33;;;4.10;99.90;;;;;;4983177;28;20077;-67
2022/11/27 08:08:03;;;;;;;6.20;5.03;;;4.10;99.90;;;;;;4980392;28;20114;-67
2022/11/27 08:10:33;;;;;;;3.78;3.47;;;4.10;99.90;;;;;;4981695;28;20091;-66
2022/11/27 08:13:00;;;;;;;5.05;4.38;;;4.10;99.90;;;;;;4983179;28;20143;-65
2022/11/27 08:15:27;;;;;;;4.30;3.78;;;4.10;99.90;;;;;;4983254;28;20042;-66
2022/11/27 08:17:54;;;;;;;4.20;3.90;;;4.10;99.90;;;;;;4983484;28;20141;-65
2022/11/27 08:20:21;;;;;;;6.32;4.88;;;4.10;99.90;;;;;;4979148;28;20054;-67
2022/11/27 08:22:49;;;;;;;6.93;4.72;;;4.10;99.90;;;;;;4976919;28;20129;-68
2022/11/27 08:25:16;;;;;;;4.18;3.78;;;4.10;99.90;;;;;;4982352;28;20060;-66
2022/11/27 08:27:43;;;;;;;5.20;4.68;;;4.10;99.90;;;;;;4979757;28;20054;-66
2022/11/27 08:30:10;;;;;;;5.40;4.90;;;4.10;99.90;;;;;;4983347;28;20060;-68
2022/11/27 08:32:39;;;;;;;4.90;4.45;;;4.10;99.90;;;;;;4978178;28;20053;-65
2022/11/27 08:35:06;;;;;;;5.70;5.18;;;4.10;99.90;;;;;;4997269;28;20377;-66
2022/11/27 08:37:34;;;;;;;4.90;4.45;;;4.10;99.90;;;;;;4980893;28;20046;-67
2022/11/27 08:40:01;;;;;;;9.20;4.35;;;4.10;99.90;;;;;;4977081;28;20045;-67
2022/11/27 08:42:28;;;;;;;5.75;4.85;;;4.10;99.90;;;;;;4979369;28;20046;-66
2022/11/27 08:44:55;;;;;;;5.05;4.50;;;4.10;99.90;;;;;;4979875;28;20172;-67
2022/11/27 08:47:22;;;;;;;5.55;4.88;;;4.20;99.90;;;;;;4979486;28;20079;-66
2022/11/27 08:49:49;;;;;;;6.35;5.70;;;4.20;99.90;;;;;;4979512;28;20050;-66
2022/11/27 08:52:16;;;;;;;6.45;5.80;;;4.20;99.90;;;;;;4974937;28;20057;-66
2022/11/27 08:54:43;;;;;;;7.18;6.15;;;4.30;99.90;;;;;;4982610;28;20050;-65
2022/11/27 08:57:09;;;;;;;9.40;8.13;;;4.30;99.90;;;;;;4975976;28;20138;-67
2022/11/27 08:59:36;;;;;;;7.68;6.80;;;4.30;99.90;;;;;;4972714;28;20095;-67
2022/11/27 09:02:03;;;;;;;6.10;5.50;;;4.30;99.90;;;;;;4975591;28;20165;-67
2022/11/27 09:04:30;;;;;;;8.80;6.90;;;4.40;99.90;;;;;;4974485;28;20145;-67
2022/11/27 09:06:57;;;;;;;6.72;5.70;;;4.40;99.90;;;;;;4980463;28;20051;-65
2022/11/27 09:09:24;;;;;;;6.85;6.03;;;4.40;99.90;;;;;;4978672;28;20511;-65
2022/11/27 09:11:53;;;;;;;7.15;6.53;;;4.50;99.90;;;;;;4979792;28;20054;-66
2022/11/27 09:14:20;;;;;;;7.35;6.63;;;4.50;99.90;;;;;;4979014;28;20173;-67
2022/11/27 09:16:47;;;;;;;7.35;6.63;;;4.50;99.90;;;;;;4979768;28;20198;-65
2022/11/27 09:19:14;;;;;;;7.55;6.80;;;4.50;99.90;;;;;;4980896;28;20077;-66
2022/11/27 09:21:41;;;;;;;6.93;6.28;;;4.50;99.90;;;;;;4981032;28;20046;-68
2022/11/27 09:24:08;;;;;;;9.63;8.30;;;4.50;99.90;;;;;;4977299;28;20065;-66
2022/11/27 09:26:35;;;;;;;7.25;6.63;;;4.50;99.90;;;;;;4980861;28;20155;-65
2022/11/27 09:29:02;;;;;;;8.50;7.45;;;4.50;99.90;;;;;;4980907;28;20050;-64
2022/11/27 09:31:29;;;;;;;9.20;8.18;;;4.50;99.90;;;;;;4983411;28;20039;-65
2022/11/27 09:33:57;;;;;;;9.20;8.13;;;4.60;99.90;;;;;;4981996;28;20150;-67
2022/11/27 09:36:25;;;;;;;9.02;7.75;;;4.60;99.90;;;;;;4978711;28;20133;-68
2022/11/27 09:38:53;;;;;;;8.73;7.25;;;4.60;99.90;;;;;;4977348;28;20050;-65
2022/11/27 09:41:37;;;;;;;7.93;7.07;;;4.50;99.90;;;;;;4975785;28;20174;-65
2022/11/27 09:44:13;;;;;;;5.70;5.10;;;4.50;99.90;;;;;;4987600;28;20126;-65
2022/11/27 09:46:42;;;;;;;2.78;2.42;;;4.40;99.90;;;;;;4982287;28;20130;-67
2022/11/27 09:49:14;;;;;;;1.83;1.65;;;4.40;99.90;;;;;;4984403;28;20061;-65
2022/11/27 09:51:53;;;;;;;0.98;0.88;;;4.40;99.90;;;;;;4980255;28;20145;-64
2022/11/27 09:54:53;;;;;;;1.25;1.15;;;4.40;99.90;;;;;;4984071;28;20140;-65
2022/11/27 09:57:30;;;;;;;1.50;1.30;;;4.40;99.90;;;;;;4983323;28;20129;-66
2022/11/27 10:00:09;;;;;;;1.20;0.80;;;4.50;99.90;;;;;;4982383;28;20092;-66
2022/11/27 10:02:36;;;;;;;1.98;1.17;;;4.50;99.90;;;;;;4980907;28;20049;-65
2022/11/27 10:05:10;;;;;;;1.10;0.80;;;4.50;99.90;;;;;;4985088;28;20229;-67
2022/11/27 10:08:05;;;;;;;2.30;1.00;;;4.50;99.90;;;;;;4979922;28;20046;-66
2022/11/27 10:10:55;;;;;;;2.53;1.00;;;4.60;99.90;;;;;;4984049;28;20055;-65
2022/11/27 10:13:31;;;;;;;2.47;0.68;;;4.60;99.90;;;;;;4987083;28;20401;-65
2022/11/27 10:16:02;;;;;;;2.35;1.02;;;4.60;99.90;;;;;;4985445;28;20053;-66
2022/11/27 10:18:39;;;;;;;0.73;0.73;;;4.60;99.90;;;;;;4982781;28;20061;-66
2022/11/27 10:21:13;;;;;;;0.77;0.77;;;4.60;99.90;;;;;;4984397;28;20794;-67
2022/11/27 10:24:08;;;;;;;1.75;1.60;;;4.60;99.90;;;;;;4986060;28;20057;-66
2022/11/27 10:26:50;;;;;;;1.20;1.10;;;4.60;99.90;;;;;;4977560;28;20070;-66
2022/11/27 10:29:40;;;;;;;2.60;1.00;;;4.60;99.90;;;;;;4981426;28;20062;-65
2022/11/27 10:32:18;;;;;;;1.10;0.82;;;4.60;99.90;;;;;;4982494;28;20042;-65
2022/11/27 10:35:17;;;;;;;1.80;0.73;;;4.60;99.90;;;;;;4986153;28;20495;-65
2022/11/27 10:38:05;;;;;;;0.95;0.90;;;4.70;99.90;;;;;;4983485;28;20137;-65
2022/11/27 10:40:42;;;;;;;2.35;1.10;;;4.70;99.90;;;;;;4985804;28;20046;-66
2022/11/27 10:43:17;;;;;;;0.77;0.77;;;4.60;99.90;;;;;;4985627;28;20054;-66
2022/11/27 10:46:16;;;;;;;0.90;0.82;;;4.60;99.90;;;;;;4985058;28;20046;-67
2022/11/27 10:48:43;;;;;;;1.30;1.20;;;4.60;99.90;;;;;;4945059;28;20051;-67
2022/11/27 10:51:31;;;;;;;1.20;1.10;;;4.70;99.90;;;;;;4980808;28;20046;-65
2022/11/27 10:53:59;;;;;;;1.30;1.20;;;4.60;99.90;;;;;;4982809;28;20046;-68
2022/11/27 10:56:46;;;;;;;0.90;0.90;;;4.60;99.90;;;;;;4977316;28;20046;-65
2022/11/27 10:59:28;;;;;;;2.45;1.00;;;4.60;99.90;;;;;;4984171;28;20124;-65
2022/11/27 11:02:02;;;;;;;0.85;0.85;;;4.60;99.90;;;;;;4983521;28;20046;-68
2022/11/27 11:04:31;;;;;;;1.75;1.30;;;4.60;99.90;;;;;;4980541;28;20050;-68
2022/11/27 11:07:25;;;;;;;1.25;1.15;;;4.60;99.90;;;;;;4981644;28;20722;-65
2022/11/27 11:09:53;;;;;;;1.13;0.77;;;4.60;99.90;;;;;;4983576;28;20055;-65
2022/11/27 11:12:22;;;;;;;2.00;0.95;;;4.60;99.90;;;;;;4979707;28;20113;-65
2022/11/27 11:14:51;;;;;;;1.48;1.38;;;4.60;99.90;;;;;;4985868;28;20381;-65
2022/11/27 11:17:33;;;;;;;1.63;1.23;;;4.60;99.90;;;;;;4984721;28;20048;-65
2022/11/27 11:20:21;;;;;;;1.27;1.13;;;4.60;99.90;;;;;;4981378;28;20082;-67
2022/11/27 11:22:48;;;;;;;1.40;1.20;;;4.60;99.90;;;;;;4977014;28;20044;-64
2022/11/27 11:25:20;;;;;;;1.00;0.90;;;4.60;99.90;;;;;;4982179;28;20053;-64
2022/11/27 11:27:50;;;;;;;1.45;0.73;;;4.70;99.90;;;;;;4975680;28;20057;-65
2022/11/27 11:30:27;;;;;;;0.80;0.73;;;4.60;99.90;;;;;;4977912;28;20108;-64
2022/11/27 11:33:02;;;;;;;1.38;0.95;;;4.60;99.90;;;;;;4983058;28;20162;-67
2022/11/27 11:35:34;;;;;;;1.10;0.85;;;4.70;99.90;;;;;;4983514;28;20049;-64
2022/11/27 11:38:15;;;;;;;1.35;1.25;;;4.60;99.90;;;;;;4981257;28;20046;-65
2022/11/27 11:40:45;;;;;;;1.58;1.48;;;4.70;99.90;;;;;;4977572;28;20046;-64
2022/11/27 11:43:26;;;;;;;;;;;4.70;99.90;;;;;;4985857;28;20050;-65
2022/11/27 11:45:55;;;;;;;;;;;4.60;99.90;;;;;;4981795;28;20052;-64
2022/11/27 11:48:24;;;;;;;0.82;0.82;;;4.60;99.90;;;;;;4981313;28;19929;-64
2022/11/27 11:50:57;;;;;;;1.17;1.02;;;4.60;99.90;;;;;;4982995;28;20046;-64
2022/11/27 11:53:41;;;;;;;1.33;1.17;;;4.60;99.90;;;;;;4978142;28;20061;-65
2022/11/27 11:56:36;;;;;;;1.25;1.15;;;4.60;99.90;;;;;;4985039;28;20043;-65
2022/11/27 11:59:21;;;;;;;1.40;1.13;;;4.60;99.90;;;;;;4973937;28;20398;-66
2022/11/27 12:02:02;;;;;;;0.70;0.70;;;4.60;99.90;;;;;;4984959;28;20046;-66
2022/11/27 12:04:47;;;;;;;1.67;1.27;;;4.50;99.90;;;;;;4977064;28;20066;-65
2022/11/27 12:07:40;;;;;;;1.30;1.00;;;4.50;99.90;;;;;;4987655;28;20042;-65
2022/11/27 12:10:21;;;;;;;1.20;0.90;;;4.50;99.90;;;;;;4981237;28;20054;-65
2022/11/27 12:13:17;;;;;;;1.27;0.98;;;4.50;99.90;;;;;;4983258;28;20045;-66
2022/11/27 12:16:03;;;;;;;0.88;0.88;;;4.40;99.90;;;;;;4987323;28;20074;-65
2022/11/27 12:18:56;;;;;;;0.80;0.80;;;4.50;99.90;;;;;;4988457;28;20078;-66
2022/11/27 12:21:37;;;;;;;0.95;0.75;;;4.40;99.90;;;;;;4982211;28;20485;-66
2022/11/27 12:24:28;;;;;;;1.27;0.95;;;4.40;99.90;;;;;;4982888;28;20499;-64
2022/11/27 12:27:03;;;;;;;1.13;1.02;;;4.40;99.90;;;;;;4990127;28;20054;-63
2022/11/27 12:29:51;;;;;;;1.20;1.10;;;4.30;99.90;;;;;;4982873;28;20599;-65
2022/11/27 12:32:51;;;;;;;1.58;1.10;;;4.30;99.90;;;;;;4978709;28;20046;-63
2022/11/27 12:35:18;;;;;;;1.20;0.82;;;4.20;99.90;;;;;;4979340;28;20141;-63
2022/11/27 12:38:16;;;;;;;1.55;0.75;;;4.20;99.90;;;;;;4979075;28;20726;-63
2022/11/27 12:41:01;;;;;;;0.60;0.60;;;4.20;99.90;;;;;;4980422;28;20132;-64
2022/11/27 12:43:34;;;;;;;1.77;0.90;;;4.10;99.90;;;;;;4983515;28;20133;-64
2022/11/27 12:46:07;;;;;;;1.00;0.85;;;4.10;99.90;;;;;;4981298;28;20058;-63
2022/11/27 12:48:59;;;;;;;0.93;0.82;;;4.10;99.90;;;;;;4981195;28;20053;-66
2022/11/27 12:51:30;;;;;;;1.42;1.23;;;4.10;99.90;;;;;;4982240;28;20484;-65
2022/11/27 12:54:03;;;;;;;1.15;1.00;;;4.00;99.90;;;;;;4975747;28;20050;-65
2022/11/27 12:56:43;;;;;;;1.33;1.23;;;4.00;99.90;;;;;;4981504;28;20156;-64
2022/11/27 12:59:10;;;;;;;0.80;0.80;;;4.00;99.90;;;;;;4978054;28;20063;-65
2022/11/27 13:01:53;;;;;;;0.45;0.45;;;4.00;99.90;;;;;;4980657;28;20132;-65
2022/11/27 13:04:26;;;;;;;3.25;1.05;;;4.00;99.90;;;;;;4981648;28;20482;-65
2022/11/27 13:06:59;;;;;;;0.90;0.90;;;4.00;99.90;;;;;;4977987;28;20129;-63
2022/11/27 13:09:44;;;;;;;2.05;1.20;;;4.10;99.90;;;;;;4983830;28;20050;-63
2022/11/27 13:12:21;;;;;;;2.30;1.38;;;4.00;99.90;;;;;;4984184;28;20473;-64
2022/11/27 13:14:59;;;;;;;1.05;0.82;;;4.00;99.90;;;;;;4975686;28;20084;-63
2022/11/27 13:17:34;;;;;;;1.25;0.70;;;4.00;99.90;;;;;;4982083;28;20047;-63
2022/11/27 13:20:02;;;;;;;0.95;0.77;;;4.00;99.90;;;;;;4984944;28;20491;-63
2022/11/27 13:23:32;;;;;;;1.13;0.90;;;4.00;99.90;;;;;;5015342;28;20481;-65